Flight Track Log - Related Links

Times and Time Zones

All times are in EDT time to prevent confusion due to time zone crossing. See the AAR132 flight status page for this flight to view local times or setup timezone preferences in your user account.

Time Position Orientation Groundspeed Altitude Reporting Facility
EDT Latitude Longitude Course Direction KTS MPH feet Rate Location/Type
Tue 08:45:07 PM 37.5220 126.4040 325° Northwest 162 186 3,000  Level FlightAware ADS-B
Tue 08:45:27 PM 37.5350 126.3930 326° Northwest 188 216 3,300 400 Climbing FlightAware ADS-B
Tue 08:45:52 PM 37.5520 126.3790 327° Northwest 188 216 3,300 1,842 Level FlightAware ADS-B
Tue 08:48:00 PM 37.4163 126.5278 139° Southeast  Level Estimated
Tue 08:49:00 PM 37.3526 126.5974 139° Southeast  Level Estimated
Tue 08:50:00 PM 37.2888 126.6668 139° Southeast  Level Estimated
Tue 08:50:37 PM 37.5540 126.6470 139° Southeast 11,700  Level FlightAware ADS-B
Tue 08:51:22 PM 37.4960 126.7130 138° Southeast 365 420 14,200 3,133 Climbing FlightAware ADS-B
Tue 08:52:07 PM 37.4360 126.7810 138° Southeast 378 435 16,400 2,700 Climbing FlightAware ADS-B
Tue 08:52:42 PM 37.3920 126.8270 140° Southeast 396 456 17,800 2,682 Climbing FlightAware ADS-B
Tue 08:53:32 PM 37.3140 126.9010 143° Southeast 406 467 20,200 2,667 Climbing FlightAware ADS-B
Tue 08:54:12 PM 37.2500 126.9620 143° Southeast 426 490 21,800 2,325 Climbing FlightAware ADS-B
Tue 08:54:52 PM 37.1840 127.0240 143° Southeast 439 505 23,300 2,118 Climbing FlightAware ADS-B
Tue 08:55:37 PM 37.1110 127.0930 143° Southeast 447 514 24,800 1,976 Climbing FlightAware ADS-B
Tue 08:56:17 PM 37.0440 127.1560 143° Southeast 465 535 26,100 2,047 Climbing FlightAware ADS-B
Tue 08:57:02 PM 36.9640 127.2310 143° Southeast 467 537 27,700 2,047 Climbing FlightAware ADS-B
Tue 08:57:42 PM 36.8950 127.2950 143° Southeast 466 536 29,000 918 Climbing FlightAware ADS-B
Tue 08:58:27 PM 36.8200 127.3720 141° Southeast 475 547 29,000  Level FlightAware ADS-B
Tue 08:59:07 PM 36.7550 127.4510 136° Southeast 473 544 29,000  Level FlightAware ADS-B
Tue 08:59:42 PM 36.7040 127.5130 136° Southeast 472 543 29,000  Level FlightAware ADS-B
Tue 09:00:27 PM 36.6360 127.5970 135° Southeast 472 543 29,000  Level FlightAware ADS-B
Tue 09:01:07 PM 36.5840 127.6630 134° Southeast 472 543 29,000  Level FlightAware ADS-B
Tue 09:01:47 PM 36.5310 127.7280 135° Southeast 472 543 29,000  Level FlightAware ADS-B
Tue 09:02:42 PM 36.4330 127.8430 137° Southeast 472 543 29,000  Level FlightAware ADS-B
Tue 09:03:27 PM 36.3730 127.9180 135° Southeast 472 543 29,000  Level FlightAware ADS-B
Tue 09:04:07 PM 36.3200 127.9840 135° Southeast 472 543 29,000  Level FlightAware ADS-B
Tue 09:04:57 PM 36.2550 128.0650 135° Southeast 472 543 29,000  Level FlightAware ADS-B
Tue 09:05:37 PM 36.2020 128.1300 135° Southeast 472 543 29,000  Level FlightAware ADS-B
Tue 09:06:17 PM 36.1500 128.1950 135° Southeast 472 543 29,000 -363 Level FlightAware ADS-B
Tue 09:08:00 PM 36.0335 128.3014 144° Southeast  Level Estimated
Tue 09:09:00 PM 35.9656 128.3633 144° Southeast  Level Estimated
Tue 09:10:00 PM 35.8977 128.4250 144° Southeast  Level Estimated
Tue 09:11:00 PM 35.8298 128.4867 144° Southeast  Level Estimated
Tue 09:12:00 PM 35.7618 128.5482 144° Southeast  Level Estimated
Tue 09:13:00 PM 35.6938 128.6096 144° Southeast  Level Estimated
Tue 09:14:00 PM 35.6257 128.6709 144° Southeast  Level Estimated
Tue 09:15:00 PM 35.5577 128.7322 144° Southeast  Level Estimated
Tue 09:16:00 PM 35.4895 128.7933 144° Southeast  Level Estimated
Tue 09:17:00 PM 35.4214 128.8543 144° Southeast  Level Estimated
Tue 09:18:00 PM 35.3532 128.9152 144° Southeast  Level Estimated
Tue 09:19:00 PM 35.2850 128.9760 144° Southeast  Level Estimated
Tue 09:20:00 PM 35.2168 129.0367 144° Southeast  Level Estimated
Tue 09:20:12 PM 34.6410 129.4650 144° Southeast 439 505 23,700  Level FlightAware ADS-B
Tue 09:20:47 PM 34.5920 129.5140 141° Southeast 439 505 23,700 -2,047 Level FlightAware ADS-B
Tue 09:21:37 PM 34.5090 129.5930 142° Southeast 412 474 20,800 -3,829 Descending FlightAware ADS-B
Tue 09:22:32 PM 34.4290 129.6700 142° Southeast 399 459 17,000 -2,743 Descending FlightAware ADS-B
Tue 09:23:22 PM 34.3660 129.7310 141° Southeast 394 453 16,000 -2,933 Descending FlightAware ADS-B
Tue 09:24:02 PM 34.3050 129.7890 142° Southeast 369 425 12,600 -2,800 Descending FlightAware ADS-B
Tue 09:24:52 PM 34.2380 129.8520 142° Southeast 355 409 11,800 -933 Descending FlightAware ADS-B
Tue 09:25:32 PM 34.1900 129.8930 145° Southeast 333 383 11,200 -494 Descending FlightAware ADS-B
Tue 09:26:17 PM 34.1360 129.9410 144° Southeast 328 377 11,100 -988 Descending FlightAware ADS-B
Tue 09:26:57 PM 34.0860 129.9830 145° Southeast 299 344 9,800 -1,662 Descending FlightAware ADS-B
Tue 09:27:22 PM 34.0590 130.0070 144° Southeast 297 342 9,300 -1,200 Descending FlightAware ADS-B
Tue 09:27:52 PM 34.0260 130.0350 145° Southeast 294 338 8,700 -1,100 Descending FlightAware ADS-B
Tue 09:28:22 PM 33.9910 130.0650 145° Southeast 281 323 8,200 -764 Descending FlightAware ADS-B
Tue 09:28:47 PM 33.9660 130.0860 145° Southeast 268 308 8,000 -450 Descending FlightAware ADS-B
Tue 09:29:02 PM 33.9520 130.0980 145° Southeast 260 299 7,900 -533 Descending FlightAware ADS-B
Tue 09:29:32 PM 33.9220 130.1230 145° Southeast 244 281 7,600 -480 Descending FlightAware ADS-B
Tue 09:29:52 PM 33.9070 130.1350 146° Southeast 238 274 7,500 -873 Descending FlightAware ADS-B
Tue 09:30:27 PM 33.8740 130.1640 144° Southeast 218 251 6,800 -1,385 Descending FlightAware ADS-B
Tue 09:30:57 PM 33.8560 130.1930 127° Southeast 217 250 6,000 -1,418 Descending FlightAware ADS-B
Tue 09:31:22 PM 33.8430 130.2160 124° Southeast 210 242 5,500 -1,050 Descending FlightAware ADS-B
Tue 09:31:37 PM 33.8340 130.2300 128° Southeast 194 223 5,300 -1,050 Descending FlightAware ADS-B
Tue 09:32:02 PM 33.8220 130.2510 125° Southeast 183 211 4,800 -1,091 Descending FlightAware ADS-B
Tue 09:32:32 PM 33.8060 130.2760 128° Southeast 180 207 4,300 -655 Descending FlightAware ADS-B
Tue 09:32:57 PM 33.8020 130.2830 125° Southeast 180 207 4,200 109 Descending FlightAware ADS-B
Tue 09:33:27 PM 33.7910 130.3010 126° Southeast 197 227 4,400  Climbing FlightAware ADS-B
Tue 09:33:37 PM 33.7830 130.3140 127° Southeast 206 237 4,200 -1,067 Descending FlightAware ADS-B
Tue 09:34:12 PM 33.7560 130.3340 148° Southeast 192 221 3,600 -1,050 Descending FlightAware ADS-B
Tue 09:34:17 PM 33.7530 130.3360 151° Southeast 191 220 3,500 -200 Descending FlightAware ADS-B
Tue 09:34:42 PM 33.7360 130.3490 148° Southeast 191 220 3,500 -1,108 Level FlightAware ADS-B
Tue 09:35:22 PM 33.7080 130.3670 152° Southeast 177 204 2,300 -1,500 Descending FlightAware ADS-B
Tue 09:35:42 PM 33.6930 130.3780 149° Southeast 175 201 2,000 -960 Descending FlightAware ADS-B
Tue 09:36:12 PM 33.6720 130.3930 149° Southeast 171 197 1,500 -982 Descending FlightAware ADS-B
Tue 09:36:37 PM 33.6500 130.4060 154° Southeast 151 174 1,100 -800 Descending FlightAware ADS-B
Tue 09:37:12 PM 33.6330 130.4180 150° Southeast 143 165 700 -646 Descending FlightAware ADS-B
Tue 09:37:42 PM 33.6180 130.4290 149° Southeast 147 169 400 -327 Descending FlightAware ADS-B
Tue 09:38:07 PM 33.6030 130.4400 149° Southeast 147 169 400  Level FlightAware ADS-B
Tue 09:40:00 PM 33.5866 130.4502 153° Southeast  Level Estimated
Tue 09:41:00 PM 33.5866 130.4502 248° West  Level Estimated
Tue 09:42:00 PM 33.5866 130.4502 248° West  Level Estimated
Tue 09:43:00 PM 33.5866 130.4502 248° West  Level Estimated
Tue 09:44:00 PM 33.5866 130.4502 248° West  Level Estimated
Tue 09:45:00 PM 33.5866 130.4502 248° West  Level Estimated
Tue 09:46:00 PM 33.5866 130.4502 248° West  Level Estimated
Tue 09:47:00 PM 33.5866 130.4502 248° West  Level Estimated
Tue 09:48:00 PM 33.5866 130.4502 248° West  Level Estimated
Tue 09:49:00 PM 33.5866 130.4502 248° West  Level Estimated
Tue 09:50:00 PM 33.5866 130.4502 248° West  Level Estimated
Tue 09:51:00 PM 33.5866 130.4502 248° West  Level Estimated
Tue 09:52:00 PM 33.5866 130.4502 248° West  Level Estimated
Tue 09:53:00 PM 33.5866 130.4502 248° West  Level Estimated
Tue 09:54:00 PM 33.5866 130.4502 248° West  Level Estimated
Tue 09:55:00 PM 33.5866 130.4502 248° West  Level Estimated
Tue 09:56:00 PM 33.5866 130.4502 248° West  Level Estimated
Tue 09:57:00 PM 33.5866 130.4502 248° West  Level Estimated
Tue 09:58:00 PM 33.5866 130.4502 248° West  Level Estimated
Tue 09:59:00 PM 33.5866 130.4502 248° West  Level Estimated
Tue 10:00:00 PM 33.5866 130.4502 248° West  Level Estimated
Tue 10:01:00 PM 33.5866 130.4502 248° West  Level Estimated

Login

Don't have an account? Register now (free) for customized features, flight alerts, and more!